Weather at Watonga Regional Airport

Public forecast

Using degrees Fahrenheit for public forecast. Weather courtesy of forecast.io.

Current aviation weather report (METAR) for Watonga Regional Airport

Retrieved 2021/06/17 01:15 UTC (0 seconds ago):

KJWG 170115Z AUTO 17009KT 10SM CLR 32/17 A3001 RMK AO2 T03230172

Closest aviation forecast (TAF) to Watonga Regional Airport

Forecast is more than 6 hours old.

Closest forecast is Vance Air Force Base, 37.6 nm (69.5 km) NE. Retrieved 2021/06/16 18:00 UTC (7 hours ago):

TAF TAF KEND 161800Z 1618/1724 20009KT 9999 SKC QNH2987INS TX39/1621Z TN23/1711Z